sensor_id;sensor_type;location;lat;lon;timestamp;pressure;altitude;pressure_sealevel;temperature;humidity
2549;BME280;1284;53.520;10.248;2024-03-25T00:01:28;99241.31;;;9.10;90.55
2549;BME280;1284;53.520;10.248;2024-03-25T00:03:54;99248.28;;;9.33;89.93
2549;BME280;1284;53.520;10.248;2024-03-25T00:06:19;99241.41;;;9.42;88.97
2549;BME280;1284;53.520;10.248;2024-03-25T00:08:45;99252.16;;;9.46;88.67
2549;BME280;1284;53.520;10.248;2024-03-25T00:11:10;99248.66;;;9.31;88.39
2549;BME280;1284;53.520;10.248;2024-03-25T00:13:36;99247.91;;;9.45;88.42
2549;BME280;1284;53.520;10.248;2024-03-25T00:16:01;99255.91;;;9.17;89.38
2549;BME280;1284;53.520;10.248;2024-03-25T00:18:27;99257.81;;;9.13;88.72
2549;BME280;1284;53.520;10.248;2024-03-25T00:20:52;99256.28;;;9.15;88.53
2549;BME280;1284;53.520;10.248;2024-03-25T00:23:18;99254.75;;;9.10;88.42
2549;BME280;1284;53.520;10.248;2024-03-25T00:25:44;99264.41;;;9.36;88.48
2549;BME280;1284;53.520;10.248;2024-03-25T00:28:10;99269.78;;;9.47;86.60
2549;BME280;1284;53.520;10.248;2024-03-25T00:30:35;99274.81;;;9.52;86.57
2549;BME280;1284;53.520;10.248;2024-03-25T00:33:00;99271.69;;;9.43;85.79
2549;BME280;1284;53.520;10.248;2024-03-25T00:35:26;99272.88;;;9.49;87.03
2549;BME280;1284;53.520;10.248;2024-03-25T00:37:52;99278.63;;;9.44;86.52
2549;BME280;1284;53.520;10.248;2024-03-25T00:40:18;99282.09;;;9.48;86.81
2549;BME280;1284;53.520;10.248;2024-03-25T00:42:45;99282.00;;;9.20;87.10
2549;BME280;1284;53.520;10.248;2024-03-25T00:45:11;99284.72;;;9.34;87.77
2549;BME280;1284;53.520;10.248;2024-03-25T00:47:37;99284.34;;;9.28;87.91
2549;BME280;1284;53.520;10.248;2024-03-25T00:50:03;99290.94;;;9.48;86.91
2549;BME280;1284;53.520;10.248;2024-03-25T00:52:28;99287.03;;;9.35;86.96
2549;BME280;1284;53.520;10.248;2024-03-25T00:54:54;99293.22;;;9.57;87.42
2549;BME280;1284;53.520;10.248;2024-03-25T00:57:19;99290.56;;;9.64;85.29
2549;BME280;1284;53.520;10.248;2024-03-25T00:59:45;99294.00;;;9.54;86.78
2549;BME280;1284;53.520;10.248;2024-03-25T01:02:10;99295.19;;;9.63;85.79
2549;BME280;1284;53.520;10.248;2024-03-25T01:04:36;99313.22;;;9.63;85.28
2549;BME280;1284;53.520;10.248;2024-03-25T01:07:01;99296.66;;;9.43;85.72
2549;BME280;1284;53.520;10.248;2024-03-25T01:09:27;99307.44;;;9.50;86.11
2549;BME280;1284;53.520;10.248;2024-03-25T01:11:52;99307.06;;;9.66;85.81
2549;BME280;1284;53.520;10.248;2024-03-25T01:14:17;99312.47;;;9.69;85.84
2549;BME280;1284;53.520;10.248;2024-03-25T01:16:43;99316.69;;;9.74;85.52
2549;BME280;1284;53.520;10.248;2024-03-25T01:19:09;99314.75;;;9.64;85.84
2549;BME280;1284;53.520;10.248;2024-03-25T01:21:34;99323.59;;;9.75;85.34
2549;BME280;1284;53.520;10.248;2024-03-25T01:24:00;99323.19;;;9.62;86.33
2549;BME280;1284;53.520;10.248;2024-03-25T01:26:25;99317.81;;;9.66;86.83
2549;BME280;1284;53.520;10.248;2024-03-25T01:28:52;99322.06;;;9.74;85.84
2549;BME280;1284;53.520;10.248;2024-03-25T01:31:17;99323.19;;;9.59;87.07
2549;BME280;1284;53.520;10.248;2024-03-25T01:33:43;99321.16;;;9.31;89.32
2549;BME280;1284;53.520;10.248;2024-03-25T01:36:08;99331.59;;;9.47;88.48
2549;BME280;1284;53.520;10.248;2024-03-25T01:38:36;99330.06;;;9.42;89.23
2549;BME280;1284;53.520;10.248;2024-03-25T01:41:09;99331.19;;;9.38;89.89
2549;BME280;1284;53.520;10.248;2024-03-25T01:43:35;99329.66;;;9.37;89.61
2549;BME280;1284;53.520;10.248;2024-03-25T01:46:01;99334.25;;;9.36;90.49
2549;BME280;1284;53.520;10.248;2024-03-25T01:48:26;99323.13;;;9.41;89.74
2549;BME280;1284;53.520;10.248;2024-03-25T01:50:53;99338.13;;;9.56;89.73
2549;BME280;1284;53.520;10.248;2024-03-25T01:53:19;99336.63;;;9.62;89.51
2549;BME280;1284;53.520;10.248;2024-03-25T01:55:46;99337.38;;;9.52;90.20
2549;BME280;1284;53.520;10.248;2024-03-25T01:58:14;99342.31;;;9.33;90.03
2549;BME280;1284;53.520;10.248;2024-03-25T02:00:40;99343.50;;;9.39;91.27
2549;BME280;1284;53.520;10.248;2024-03-25T02:03:08;99353.06;;;9.40;91.37
2549;BME280;1284;53.520;10.248;2024-03-25T02:05:34;99346.63;;;9.65;90.17
2549;BME280;1284;53.520;10.248;2024-03-25T02:08:00;99356.22;;;9.70;89.49
2549;BME280;1284;53.520;10.248;2024-03-25T02:10:26;99342.00;;;9.66;89.34
2549;BME280;1284;53.520;10.248;2024-03-25T02:12:53;99355.84;;;9.68;89.48
2549;BME280;1284;53.520;10.248;2024-03-25T02:15:19;99359.94;;;9.34;90.19
2549;BME280;1284;53.520;10.248;2024-03-25T02:17:45;99364.22;;;9.49;90.58
2549;BME280;1284;53.520;10.248;2024-03-25T02:20:11;99362.25;;;9.32;91.14
2549;BME280;1284;53.520;10.248;2024-03-25T02:22:38;99361.97;;;9.61;90.29
2549;BME280;1284;53.520;10.248;2024-03-25T02:25:08;99363.50;;;9.55;89.36
2549;BME280;1284;53.520;10.248;2024-03-25T02:27:36;99373.06;;;9.53;90.35
2549;BME280;1284;53.520;10.248;2024-03-25T02:30:09;99367.69;;;9.46;91.03
2549;BME280;1284;53.520;10.248;2024-03-25T02:32:37;99368.47;;;9.53;90.89
2549;BME280;1284;53.520;10.248;2024-03-25T02:35:05;99371.53;;;9.52;90.78
2549;BME280;1284;53.520;10.248;2024-03-25T02:37:32;99365.78;;;9.57;89.87
2549;BME280;1284;53.520;10.248;2024-03-25T02:39:59;99375.41;;;9.58;89.83
2549;BME280;1284;53.520;10.248;2024-03-25T02:42:25;99378.03;;;9.47;89.43
2549;BME280;1284;53.520;10.248;2024-03-25T02:44:54;99373.84;;;9.50;89.39
2549;BME280;1284;53.520;10.248;2024-03-25T02:47:20;99385.00;;;9.62;89.53
2549;BME280;1284;53.520;10.248;2024-03-25T02:49:46;99396.53;;;9.63;88.86
2549;BME280;1284;53.520;10.248;2024-03-25T02:52:11;99398.81;;;9.61;88.60
2549;BME280;1284;53.520;10.248;2024-03-25T02:54:37;99395.97;;;9.26;88.67
2549;BME280;1284;53.520;10.248;2024-03-25T02:57:02;99391.38;;;9.23;88.23
2549;BME280;1284;53.520;10.248;2024-03-25T02:59:28;99398.75;;;9.47;88.24
2549;BME280;1284;53.520;10.248;2024-03-25T03:01:53;99391.06;;;9.42;87.54
2549;BME280;1284;53.520;10.248;2024-03-25T03:04:19;99390.34;;;9.52;87.16
2549;BME280;1284;53.520;10.248;2024-03-25T03:06:44;99399.19;;;9.56;86.54
2549;BME280;1284;53.520;10.248;2024-03-25T03:09:10;99407.25;;;9.52;86.02
2549;BME280;1284;53.520;10.248;2024-03-25T03:11:35;99408.38;;;9.48;85.86
2549;BME280;1284;53.520;10.248;2024-03-25T03:14:01;99415.63;;;9.37;85.89
2549;BME280;1284;53.520;10.248;2024-03-25T03:16:26;99410.97;;;9.23;86.19
2549;BME280;1284;53.520;10.248;2024-03-25T03:18:52;99420.22;;;9.33;85.36
2549;BME280;1284;53.520;10.248;2024-03-25T03:21:17;99422.44;;;9.20;85.70
2549;BME280;1284;53.520;10.248;2024-03-25T03:23:43;99440.69;;;8.97;86.62
2549;BME280;1284;53.520;10.248;2024-03-25T03:26:08;99443.19;;;9.23;86.23
2549;BME280;1284;53.520;10.248;2024-03-25T03:28:34;99454.69;;;9.24;85.99
2549;BME280;1284;53.520;10.248;2024-03-25T03:30:59;99439.34;;;9.28;86.10
2549;BME280;1284;53.520;10.248;2024-03-25T03:33:24;99448.03;;;9.03;86.99
2549;BME280;1284;53.520;10.248;2024-03-25T03:35:52;99461.88;;;9.05;87.38
2549;BME280;1284;53.520;10.248;2024-03-25T03:38:17;99463.41;;;9.06;88.07
2549;BME280;1284;53.520;10.248;2024-03-25T03:40:55;99465.78;;;9.19;87.68
2549;BME280;1284;53.520;10.248;2024-03-25T03:43:20;99470.25;;;9.00;89.11
2549;BME280;1284;53.520;10.248;2024-03-25T03:45:46;99466.56;;;9.19;89.09
2549;BME280;1284;53.520;10.248;2024-03-25T03:48:11;99473.16;;;9.29;88.02
2549;BME280;1284;53.520;10.248;2024-03-25T03:50:37;99478.91;;;9.31;88.57
2549;BME280;1284;53.520;10.248;2024-03-25T03:53:02;99474.72;;;9.37;87.89
2549;BME280;1284;53.520;10.248;2024-03-25T03:55:28;99488.22;;;9.47;87.44
2549;BME280;1284;53.520;10.248;2024-03-25T03:57:53;99495.75;;;9.28;88.30
2549;BME280;1284;53.520;10.248;2024-03-25T04:00:19;99493.16;;;9.38;87.87
2549;BME280;1284;53.520;10.248;2024-03-25T04:02:44;99496.94;;;9.27;88.87
2549;BME280;1284;53.520;10.248;2024-03-25T04:05:10;99499.09;;;9.10;89.22
2549;BME280;1284;53.520;10.248;2024-03-25T04:07:35;99502.16;;;9.05;89.28
2549;BME280;1284;53.520;10.248;2024-03-25T04:10:00;99512.00;;;8.94;89.43
2549;BME280;1284;53.520;10.248;2024-03-25T04:12:26;99515.97;;;9.07;89.66
2549;BME280;1284;53.520;10.248;2024-03-25T04:14:51;99498.81;;;9.23;88.25
2549;BME280;1284;53.520;10.248;2024-03-25T04:17:21;99508.13;;;9.39;87.79
2549;BME280;1284;53.520;10.248;2024-03-25T04:19:48;99500.31;;;9.20;87.38
2549;BME280;1284;53.520;10.248;2024-03-25T04:22:13;99519.22;;;9.34;87.78
2549;BME280;1284;53.520;10.248;2024-03-25T04:24:39;99519.06;;;9.09;87.99
2549;BME280;1284;53.520;10.248;2024-03-25T04:27:04;99533.66;;;9.16;87.98
2549;BME280;1284;53.520;10.248;2024-03-25T04:29:30;99531.84;;;9.27;87.71
2549;BME280;1284;53.520;10.248;2024-03-25T04:31:55;99543.22;;;9.09;88.46
2549;BME280;1284;53.520;10.248;2024-03-25T04:34:21;99550.09;;;9.03;87.88
2549;BME280;1284;53.520;10.248;2024-03-25T04:36:46;99547.63;;;9.35;87.48
2549;BME280;1284;53.520;10.248;2024-03-25T04:39:12;99544.59;;;9.40;86.46
2549;BME280;1284;53.520;10.248;2024-03-25T04:41:37;99545.44;;;9.51;85.54
2549;BME280;1284;53.520;10.248;2024-03-25T04:44:03;99562.53;;;9.29;86.39
2549;BME280;1284;53.520;10.248;2024-03-25T04:46:28;99562.13;;;9.24;86.37
2549;BME280;1284;53.520;10.248;2024-03-25T04:48:54;99566.44;;;9.35;85.71
2549;BME280;1284;53.520;10.248;2024-03-25T04:51:19;99567.84;;;9.19;85.79
2549;BME280;1284;53.520;10.248;2024-03-25T04:53:45;99571.66;;;9.18;86.04
2549;BME280;1284;53.520;10.248;2024-03-25T04:56:10;99581.34;;;9.29;85.62
2549;BME280;1284;53.520;10.248;2024-03-25T04:58:36;99578.78;;;9.43;85.05
2549;BME280;1284;53.520;10.248;2024-03-25T05:01:01;99583.38;;;9.43;84.87
2549;BME280;1284;53.520;10.248;2024-03-25T05:03:27;99580.91;;;9.20;84.87
2549;BME280;1284;53.520;10.248;2024-03-25T05:05:52;99584.31;;;9.14;85.03
2549;BME280;1284;53.520;10.248;2024-03-25T05:08:18;99588.28;;;9.34;84.54
2549;BME280;1284;53.520;10.248;2024-03-25T05:10:43;99580.59;;;9.29;84.10
2549;BME280;1284;53.520;10.248;2024-03-25T05:13:09;99586.63;;;9.15;84.03
2549;BME280;1284;53.520;10.248;2024-03-25T05:15:35;99582.06;;;9.23;83.71
2549;BME280;1284;53.520;10.248;2024-03-25T05:18:00;99585.97;;;9.29;83.40
2549;BME280;1284;53.520;10.248;2024-03-25T05:20:27;99588.25;;;9.27;83.29
2549;BME280;1284;53.520;10.248;2024-03-25T05:22:52;99585.97;;;9.29;82.75
2549;BME280;1284;53.520;10.248;2024-03-25T05:25:18;99596.34;;;9.34;82.41
2549;BME280;1284;53.520;10.248;2024-03-25T05:27:43;99596.56;;;9.11;82.81
2549;BME280;1284;53.520;10.248;2024-03-25T05:30:09;99594.94;;;8.99;84.22
2549;BME280;1284;53.520;10.248;2024-03-25T05:32:34;99604.91;;;9.02;83.77
2549;BME280;1284;53.520;10.248;2024-03-25T05:35:01;99601.81;;;9.00;84.24
2549;BME280;1284;53.520;10.248;2024-03-25T05:37:26;99602.38;;;9.17;83.72
2549;BME280;1284;53.520;10.248;2024-03-25T05:39:52;99622.59;;;9.03;83.80
2549;BME280;1284;53.520;10.248;2024-03-25T05:42:17;99614.94;;;9.05;83.76
2549;BME280;1284;53.520;10.248;2024-03-25T05:44:45;99621.16;;;9.17;84.09
2549;BME280;1284;53.520;10.248;2024-03-25T05:47:11;99624.25;;;9.19;84.09
2549;BME280;1284;53.520;10.248;2024-03-25T05:49:36;99613.97;;;9.28;83.76
2549;BME280;1284;53.520;10.248;2024-03-25T05:52:02;99621.31;;;9.34;84.13
2549;BME280;1284;53.520;10.248;2024-03-25T05:54:27;99627.91;;;9.44;83.65
2549;BME280;1284;53.520;10.248;2024-03-25T05:56:53;99630.09;;;9.31;83.63
2549;BME280;1284;53.520;10.248;2024-03-25T05:59:18;99640.16;;;9.38;83.63
2549;BME280;1284;53.520;10.248;2024-03-25T06:01:44;99633.75;;;9.53;83.62
2549;BME280;1284;53.520;10.248;2024-03-25T06:04:09;99631.47;;;9.58;83.16
2549;BME280;1284;53.520;10.248;2024-03-25T06:06:34;99646.09;;;9.64;82.64
2549;BME280;1284;53.520;10.248;2024-03-25T06:09:00;99644.56;;;9.60;83.42
2549;BME280;1284;53.520;10.248;2024-03-25T06:11:26;99636.13;;;9.61;83.36
2549;BME280;1284;53.520;10.248;2024-03-25T06:13:51;99638.47;;;9.70;83.21
2549;BME280;1284;53.520;10.248;2024-03-25T06:16:17;99640.41;;;9.69;83.14
2549;BME280;1284;53.520;10.248;2024-03-25T06:18:43;99635.47;;;9.78;82.92
2549;BME280;1284;53.520;10.248;2024-03-25T06:21:08;99643.94;;;9.84;82.88
2549;BME280;1284;53.520;10.248;2024-03-25T06:23:34;99649.28;;;9.77;82.69
2549;BME280;1284;53.520;10.248;2024-03-25T06:25:59;99648.13;;;9.78;83.63
2549;BME280;1284;53.520;10.248;2024-03-25T06:28:25;99654.25;;;9.75;83.58
2549;BME280;1284;53.520;10.248;2024-03-25T06:30:51;99663.16;;;9.82;83.29
2549;BME280;1284;53.520;10.248;2024-03-25T06:33:35;99659.25;;;9.76;83.12
2549;BME280;1284;53.520;10.248;2024-03-25T06:36:20;99663.06;;;9.72;83.22
2549;BME280;1284;53.520;10.248;2024-03-25T06:38:46;99663.88;;;9.79;83.23
2549;BME280;1284;53.520;10.248;2024-03-25T06:41:11;99665.47;;;9.87;82.83
2549;BME280;1284;53.520;10.248;2024-03-25T06:43:37;99681.25;;;9.89;82.64
2549;BME280;1284;53.520;10.248;2024-03-25T06:46:06;99678.50;;;9.82;82.51
2549;BME280;1284;53.520;10.248;2024-03-25T06:48:33;99674.63;;;9.76;82.58
2549;BME280;1284;53.520;10.248;2024-03-25T06:51:00;99678.09;;;9.80;82.50
2549;BME280;1284;53.520;10.248;2024-03-25T06:53:28;99691.53;;;9.80;82.27
2549;BME280;1284;53.520;10.248;2024-03-25T06:56:00;99690.84;;;9.86;82.07
2549;BME280;1284;53.520;10.248;2024-03-25T06:58:29;99696.94;;;9.83;82.25
2549;BME280;1284;53.520;10.248;2024-03-25T07:01:03;99703.06;;;9.77;82.03
2549;BME280;1284;53.520;10.248;2024-03-25T07:03:28;99710.75;;;9.82;82.62
2549;BME280;1284;53.520;10.248;2024-03-25T07:05:54;99710.03;;;9.85;82.13
2549;BME280;1284;53.520;10.248;2024-03-25T07:08:21;99703.78;;;9.74;82.87
2549;BME280;1284;53.520;10.248;2024-03-25T07:10:46;99707.69;;;9.80;82.81
2549;BME280;1284;53.520;10.248;2024-03-25T07:13:12;99711.53;;;9.79;83.27
2549;BME280;1284;53.520;10.248;2024-03-25T07:15:38;99717.59;;;9.69;83.27
2549;BME280;1284;53.520;10.248;2024-03-25T07:18:05;99724.16;;;9.75;83.50
2549;BME280;1284;53.520;10.248;2024-03-25T07:20:31;99721.78;;;9.66;83.54
2549;BME280;1284;53.520;10.248;2024-03-25T07:22:57;99730.56;;;9.60;84.35
2549;BME280;1284;53.520;10.248;2024-03-25T07:25:24;99719.09;;;9.66;85.54
2549;BME280;1284;53.520;10.248;2024-03-25T07:27:50;99729.06;;;9.66;85.79
2549;BME280;1284;53.520;10.248;2024-03-25T07:30:15;99727.97;;;9.74;85.65
2549;BME280;1284;53.520;10.248;2024-03-25T07:32:41;99727.06;;;9.56;86.27
2549;BME280;1284;53.520;10.248;2024-03-25T07:35:06;99735.53;;;9.58;86.25
2549;BME280;1284;53.520;10.248;2024-03-25T07:37:33;99735.47;;;9.54;86.56
2549;BME280;1284;53.520;10.248;2024-03-25T07:39:59;99734.53;;;9.76;85.36
2549;BME280;1284;53.520;10.248;2024-03-25T07:42:25;99743.06;;;9.85;85.58
2549;BME280;1284;53.520;10.248;2024-03-25T07:44:50;99740.81;;;9.91;85.36
2549;BME280;1284;53.520;10.248;2024-03-25T07:47:16;99740.09;;;10.01;85.09
2549;BME280;1284;53.520;10.248;2024-03-25T07:49:41;99739.06;;;10.13;84.72
2549;BME280;1284;53.520;10.248;2024-03-25T07:52:07;99741.44;;;10.18;84.69
2549;BME280;1284;53.520;10.248;2024-03-25T07:54:32;99746.06;;;10.24;83.99
2549;BME280;1284;53.520;10.248;2024-03-25T07:56:58;99756.19;;;10.41;83.43
2549;BME280;1284;53.520;10.248;2024-03-25T07:59:23;99753.03;;;10.29;83.61
2549;BME280;1284;53.520;10.248;2024-03-25T08:01:49;99760.34;;;10.32;83.20
2549;BME280;1284;53.520;10.248;2024-03-25T08:04:14;99752.94;;;10.18;82.65
2549;BME280;1284;53.520;10.248;2024-03-25T08:06:40;99749.91;;;10.23;82.98
2549;BME280;1284;53.520;10.248;2024-03-25T08:09:05;99756.53;;;10.36;82.43
2549;BME280;1284;53.520;10.248;2024-03-25T08:11:34;99758.03;;;10.34;82.94
2549;BME280;1284;53.520;10.248;2024-03-25T08:13:59;99756.59;;;10.47;82.51
2549;BME280;1284;53.520;10.248;2024-03-25T08:16:25;99762.69;;;10.37;83.03
2549;BME280;1284;53.520;10.248;2024-03-25T08:18:50;99769.25;;;10.39;82.56
2549;BME280;1284;53.520;10.248;2024-03-25T08:21:16;99769.66;;;10.41;80.85
2549;BME280;1284;53.520;10.248;2024-03-25T08:23:45;99769.53;;;10.27;80.70
2549;BME280;1284;53.520;10.248;2024-03-25T08:26:11;99776.94;;;10.41;80.86
2549;BME280;1284;53.520;10.248;2024-03-25T08:28:36;99777.25;;;10.32;80.78
2549;BME280;1284;53.520;10.248;2024-03-25T08:31:04;99771.41;;;10.20;80.28
2549;BME280;1284;53.520;10.248;2024-03-25T08:33:30;99781.84;;;10.28;80.03
2549;BME280;1284;53.520;10.248;2024-03-25T08:35:56;99778.13;;;10.47;79.98
2549;BME280;1284;53.520;10.248;2024-03-25T08:38:22;99790.41;;;10.44;79.58
2549;BME280;1284;53.520;10.248;2024-03-25T08:40:48;99784.25;;;10.40;80.34
2549;BME280;1284;53.520;10.248;2024-03-25T08:43:13;99787.34;;;10.46;80.69
2549;BME280;1284;53.520;10.248;2024-03-25T08:45:39;99794.75;;;10.63;80.84
2549;BME280;1284;53.520;10.248;2024-03-25T08:48:06;99793.66;;;10.74;80.54
2549;BME280;1284;53.520;10.248;2024-03-25T08:50:32;99795.25;;;10.86;79.69
2549;BME280;1284;53.520;10.248;2024-03-25T08:52:57;99788.38;;;10.88;79.67
2549;BME280;1284;53.520;10.248;2024-03-25T08:55:23;99789.13;;;10.85;79.61
2549;BME280;1284;53.520;10.248;2024-03-25T08:57:49;99791.06;;;10.96;79.63
2549;BME280;1284;53.520;10.248;2024-03-25T09:00:15;99787.31;;;11.11;80.26
2549;BME280;1284;53.520;10.248;2024-03-25T09:02:40;99787.09;;;11.65;80.88
2549;BME280;1284;53.520;10.248;2024-03-25T09:05:06;99791.00;;;11.92;77.26
2549;BME280;1284;53.520;10.248;2024-03-25T09:07:32;99790.22;;;12.34;76.12
2549;BME280;1284;53.520;10.248;2024-03-25T09:09:58;99797.06;;;12.81;74.69
2549;BME280;1284;53.520;10.248;2024-03-25T09:12:42;99793.91;;;13.07;69.88
2549;BME280;1284;53.520;10.248;2024-03-25T09:15:08;99794.19;;;13.30;69.87
2549;BME280;1284;53.520;10.248;2024-03-25T09:17:35;99805.41;;;13.35;69.15
2549;BME280;1284;53.520;10.248;2024-03-25T09:20:01;99802.00;;;13.14;68.23
2549;BME280;1284;53.520;10.248;2024-03-25T09:22:29;99803.69;;;12.65;71.75
2549;BME280;1284;53.520;10.248;2024-03-25T09:24:57;99800.63;;;12.35;75.73
2549;BME280;1284;53.520;10.248;2024-03-25T09:27:22;99800.63;;;12.25;77.18
2549;BME280;1284;53.520;10.248;2024-03-25T09:29:48;99807.19;;;12.17;77.80
2549;BME280;1284;53.520;10.248;2024-03-25T09:32:13;99803.31;;;11.72;77.50
2549;BME280;1284;53.520;10.248;2024-03-25T09:34:39;99801.31;;;11.58;80.06
2549;BME280;1284;53.520;10.248;2024-03-25T09:37:04;99805.53;;;11.56;80.25
2549;BME280;1284;53.520;10.248;2024-03-25T09:39:30;99805.53;;;11.52;80.95
2549;BME280;1284;53.520;10.248;2024-03-25T09:41:57;99814.78;;;11.55;81.91
2549;BME280;1284;53.520;10.248;2024-03-25T09:44:28;99796.66;;;11.45;81.69
2549;BME280;1284;53.520;10.248;2024-03-25T09:46:56;99798.56;;;11.41;81.16
2549;BME280;1284;53.520;10.248;2024-03-25T09:49:23;99808.25;;;11.59;80.69
2549;BME280;1284;53.520;10.248;2024-03-25T09:51:50;99810.19;;;11.59;79.09
2549;BME280;1284;53.520;10.248;2024-03-25T09:54:16;99807.06;;;11.50;78.11
2549;BME280;1284;53.520;10.248;2024-03-25T09:56:41;99804.75;;;11.52;78.02
2549;BME280;1284;53.520;10.248;2024-03-25T09:59:07;99802.91;;;11.66;75.80
2549;BME280;1284;53.520;10.248;2024-03-25T10:01:33;99800.22;;;11.98;73.33
2549;BME280;1284;53.520;10.248;2024-03-25T10:03:58;99808.34;;;12.40;71.98
2549;BME280;1284;53.520;10.248;2024-03-25T10:06:23;99805.13;;;13.05;70.96
2549;BME280;1284;53.520;10.248;2024-03-25T10:08:53;99807.22;;;13.56;65.30
2549;BME280;1284;53.520;10.248;2024-03-25T10:11:19;99818.22;;;13.86;64.37
2549;BME280;1284;53.520;10.248;2024-03-25T10:13:45;99816.00;;;13.71;62.89
2549;BME280;1284;53.520;10.248;2024-03-25T10:16:11;99808.25;;;13.73;62.02
2549;BME280;1284;53.520;10.248;2024-03-25T10:18:37;99805.34;;;13.42;62.88
2549;BME280;1284;53.520;10.248;2024-03-25T10:21:02;99808.53;;;13.23;61.89
2549;BME280;1284;53.520;10.248;2024-03-25T10:23:32;99814.78;;;13.10;61.62
2549;BME280;1284;53.520;10.248;2024-03-25T10:26:00;99810.94;;;12.86;62.17
2549;BME280;1284;53.520;10.248;2024-03-25T10:28:25;99809.41;;;12.85;62.51
2549;BME280;1284;53.520;10.248;2024-03-25T10:30:51;99805.88;;;13.02;63.86
2549;BME280;1284;53.520;10.248;2024-03-25T10:33:17;99819.38;;;13.20;63.35
2549;BME280;1284;53.520;10.248;2024-03-25T10:35:44;99816.31;;;13.07;61.89
2549;BME280;1284;53.520;10.248;2024-03-25T10:38:14;99841.00;;;13.13;62.73
2549;BME280;1284;53.520;10.248;2024-03-25T10:40:43;99832.59;;;12.83;65.02
2549;BME280;1284;53.520;10.248;2024-03-25T10:43:11;99835.34;;;12.58;67.22
2549;BME280;1284;53.520;10.248;2024-03-25T10:45:40;99833.41;;;12.48;67.61
2549;BME280;1284;53.520;10.248;2024-03-25T10:48:15;99833.41;;;12.20;65.94
2549;BME280;1284;53.520;10.248;2024-03-25T10:50:46;99834.94;;;12.03;67.39
2549;BME280;1284;53.520;10.248;2024-03-25T10:53:12;99830.72;;;12.09;66.66
2549;BME280;1284;53.520;10.248;2024-03-25T10:55:39;99826.44;;;12.12;65.41
2549;BME280;1284;53.520;10.248;2024-03-25T10:58:07;99834.56;;;12.19;65.58
2549;BME280;1284;53.520;10.248;2024-03-25T11:00:34;99828.78;;;12.13;62.27
2549;BME280;1284;53.520;10.248;2024-03-25T11:03:01;99832.63;;;12.16;63.49
2549;BME280;1284;53.520;10.248;2024-03-25T11:05:27;99826.84;;;12.38;62.87
2549;BME280;1284;53.520;10.248;2024-03-25T11:07:52;99826.06;;;12.55;63.41
2549;BME280;1284;53.520;10.248;2024-03-25T11:10:18;99831.06;;;12.64;62.29
2549;BME280;1284;53.520;10.248;2024-03-25T11:12:43;99829.13;;;12.72;62.05
2549;BME280;1284;53.520;10.248;2024-03-25T11:15:09;99820.19;;;12.92;60.44
2549;BME280;1284;53.520;10.248;2024-03-25T11:17:36;99836.78;;;13.12;60.34
2549;BME280;1284;53.520;10.248;2024-03-25T11:20:12;99822.41;;;13.29;58.42
2549;BME280;1284;53.520;10.248;2024-03-25T11:22:52;99809.19;;;13.48;56.97
2549;BME280;1284;53.520;10.248;2024-03-25T11:25:20;99820.44;;;13.36;56.40
2549;BME280;1284;53.520;10.248;2024-03-25T11:27:46;99826.47;;;13.65;56.41
2549;BME280;1284;53.520;10.248;2024-03-25T11:30:15;99823.25;;;13.84;54.33
2549;BME280;1284;53.520;10.248;2024-03-25T11:32:54;99821.69;;;13.90;53.85
2549;BME280;1284;53.520;10.248;2024-03-25T11:35:20;99826.56;;;14.09;52.58
2549;BME280;1284;53.520;10.248;2024-03-25T11:37:46;99820.66;;;14.28;52.14
2549;BME280;1284;53.520;10.248;2024-03-25T11:40:13;99817.09;;;14.35;50.14
2549;BME280;1284;53.520;10.248;2024-03-25T11:42:42;99813.78;;;14.58;49.80
2549;BME280;1284;53.520;10.248;2024-03-25T11:45:19;99804.13;;;14.94;49.95
2549;BME280;1284;53.520;10.248;2024-03-25T11:47:45;99808.59;;;15.11;47.90
2549;BME280;1284;53.520;10.248;2024-03-25T11:50:13;99806.91;;;15.20;47.80
2549;BME280;1284;53.520;10.248;2024-03-25T11:52:39;99812.03;;;15.15;48.93
2549;BME280;1284;53.520;10.248;2024-03-25T11:55:05;99809.75;;;14.76;49.08
2549;BME280;1284;53.520;10.248;2024-03-25T11:57:31;99813.00;;;14.61;50.45
2549;BME280;1284;53.520;10.248;2024-03-25T11:59:58;99817.16;;;14.31;51.01
2549;BME280;1284;53.520;10.248;2024-03-25T12:02:25;99819.53;;;14.22;51.51
2549;BME280;1284;53.520;10.248;2024-03-25T12:04:50;99823.09;;;14.09;52.14
2549;BME280;1284;53.520;10.248;2024-03-25T12:07:16;99820.66;;;13.67;52.13
2549;BME280;1284;53.520;10.248;2024-03-25T12:09:42;99816.88;;;13.53;52.59
2549;BME280;1284;53.520;10.248;2024-03-25T12:12:26;99819.25;;;13.44;53.63
2549;BME280;1284;53.520;10.248;2024-03-25T12:14:53;99819.56;;;13.57;54.54
2549;BME280;1284;53.520;10.248;2024-03-25T12:17:21;99811.09;;;13.51;53.25
2549;BME280;1284;53.520;10.248;2024-03-25T12:20:03;99821.50;;;13.53;53.47
2549;BME280;1284;53.520;10.248;2024-03-25T12:22:30;99811.91;;;13.45;53.62
2549;BME280;1284;53.520;10.248;2024-03-25T12:25:00;99809.41;;;13.75;52.44
2549;BME280;1284;53.520;10.248;2024-03-25T12:27:27;99819.09;;;13.69;52.16
2549;BME280;1284;53.520;10.248;2024-03-25T12:29:58;99812.22;;;13.57;51.14
2549;BME280;1284;53.520;10.248;2024-03-25T12:32:39;99808.25;;;13.76;51.42
2549;BME280;1284;53.520;10.248;2024-03-25T12:35:10;99814.03;;;13.75;50.44
2549;BME280;1284;53.520;10.248;2024-03-25T12:37:37;99804.59;;;14.00;51.11
2549;BME280;1284;53.520;10.248;2024-03-25T12:40:05;99810.69;;;14.11;50.04
2549;BME280;1284;53.520;10.248;2024-03-25T12:42:32;99802.00;;;14.37;50.23
2549;BME280;1284;53.520;10.248;2024-03-25T12:44:58;99798.25;;;14.65;49.42
2549;BME280;1284;53.520;10.248;2024-03-25T12:47:23;99804.88;;;14.94;49.73
2549;BME280;1284;53.520;10.248;2024-03-25T12:49:49;99804.25;;;15.17;50.58
2549;BME280;1284;53.520;10.248;2024-03-25T12:52:14;99799.91;;;15.23;49.29
2549;BME280;1284;53.520;10.248;2024-03-25T12:54:40;99798.91;;;15.10;48.50
2549;BME280;1284;53.520;10.248;2024-03-25T12:57:07;99794.84;;;15.55;49.41
2549;BME280;1284;53.520;10.248;2024-03-25T12:59:33;99790.75;;;15.70;48.82
2549;BME280;1284;53.520;10.248;2024-03-25T13:01:58;99789.59;;;15.71;49.07
2549;BME280;1284;53.520;10.248;2024-03-25T13:04:24;99794.19;;;15.74;48.77
2549;BME280;1284;53.520;10.248;2024-03-25T13:06:49;99792.75;;;15.66;48.32
2549;BME280;1284;53.520;10.248;2024-03-25T13:09:15;99792.63;;;15.47;49.50
2549;BME280;1284;53.520;10.248;2024-03-25T13:11:40;99800.41;;;15.14;48.85
2549;BME280;1284;53.520;10.248;2024-03-25T13:14:06;99796.00;;;14.57;50.11